• Join FlightAware (Why Join?)
  • Login
  • US Flag 
07:32PM EST


 

Airport Tracker/Info


-or-


 

Live Flight TrackerFlight Track Log ✈ AWI3688 ✈ 09-May-2013 ✈ KPHL - KALB

Flight Track Log - Related Links

Times and Time Zones

All times are in EDT time to prevent confusion due to time zone crossing. See the AWI3688 flight status page for this flight to view local times or setup timezone preferences in your user account.

Time Position Orientation Groundspeed Altitude Reporting Facility
EDT Latitude Longitude Course Direction KTS MPH feet Rate Location/Type
12:08PM 39.8667 -75.2667 323° Northwest 159 183 800  Level Philadelphia TRACON
12:09PM 39.8500 -75.3333 252° West 205 236 3,300 2,460 Climbing Philadelphia TRACON
12:10PM 40.1379 -75.4878 323° Northwest  Level FlightAware Approximate
12:10PM 39.8500 -75.4167 270° West 263 303 5,800  Level Philadelphia TRACON
12:11PM 40.2304 -75.5705 311° West  Level FlightAware Approximate
12:11PM 39.9167 -75.4500 339° North 277 319 9,600  Level Philadelphia TRACON
12:12PM 40.3065 -75.6847 311° West  Level FlightAware Approximate
12:12PM 40.0089 -75.4864 343° North 317 365 11,700  Level New York Center
12:13PM 40.3820 -75.7987 323° Northwest  Level FlightAware Approximate
12:13PM 40.0767 -75.5128 343° North 346 398 13,000  Level New York Center
12:14PM 40.1753 -75.5467 345° North 341 392 13,000 780 Level New York Center
12:15PM 40.2561 -75.6094 329° Northwest 326 375 14,700 1,800 Climbing New York Center
12:16PM 40.3108 -75.6975 309° West 332 382 16,600 1,140 Climbing New York Center
12:17PM 40.3833 -75.8036 312° West 352 405 17,000 180 Climbing New York Center
12:18PM 40.4417 -75.9061 307° West 352 405 17,000 660 Level New York Center
12:19PM 40.4631 -76.0303 283° West 345 397 18,400 1,500 Climbing New York Center
12:20PM 40.4803 -76.1600 280° West 358 412 20,000 1,560 Climbing New York Center
12:21PM 40.5033 -76.2928 283° West 368 423 21,500 1,380 Climbing New York Center
12:22PM 40.5219 -76.4281 280° West 374 430 22,900 1,260 Climbing New York Center
12:23PM 40.5508 -76.5644 286° West 379 436 24,100 1,020 Climbing New York Center
12:24PM 40.6394 -76.6239 333° Northwest 328 377 25,000 420 Climbing New York Center
12:25PM 40.7406 -76.6461 351° North 334 384 25,000  Level New York Center
12:26PM 40.8356 -76.6653 351° North 334 384 25,000  Level New York Center
12:27PM 40.9283 -76.6842 351° North 340 391 25,000  Level New York Center
12:28PM 41.0222 -76.6814 North 340 391 25,000  Level New York Center
12:29PM 41.1139 -76.6400 19° North 331 381 25,000  Level New York Center
12:30PM 41.2078 -76.5956 20° North 344 396 25,000  Level New York Center
12:31PM 41.3017 -76.5511 20° North 350 403 25,000  Level New York Center
12:32PM 41.3975 -76.5069 19° North 355 409 25,000  Level New York Center
12:33PM 41.4933 -76.4625 19° North 355 409 25,000  Level New York Center
12:34PM 41.5872 -76.4150 21° North 355 409 25,000  Level New York Center
12:35PM 41.6725 -76.3750 19° North 355 409 25,000 -180 Level New York Center
12:37PM 41.8600 -76.2844 20° North 356 410 24,600 -360 Descending Boston Center
12:38PM 41.9533 -76.2369 21° North 356 410 24,100 -300 Descending Boston Center
12:39PM 42.0442 -76.1950 19° North 356 410 24,000 -60 Descending Boston Center
12:40PM 42.1356 -76.1472 21° North 356 410 24,000  Level Boston Center
12:41PM 42.1953 -76.0386 53° Northeast 347 399 24,000  Level Boston Center
12:42PM 42.2367 -75.9147 66° East 352 405 24,000 -240 Level Boston Center
12:44PM 42.3281 -75.6475 65° Northeast 359 413 23,400 -780 Descending Boston Center
12:45PM 42.3731 -75.5206 64° Northeast 369 425 21,800 -1,560 Descending Boston Center
12:46PM 42.4161 -75.3958 65° Northeast 369 425 20,300 -1,500 Descending Boston Center
12:47PM 42.4589 -75.2714 65° Northeast 369 425 18,800 -1,500 Descending Boston Center
12:48PM 42.4869 -75.1431 73° East 369 425 17,300 -1,500 Descending Boston Center
12:49PM 42.5128 -75.0175 74° East 358 412 15,800 -1,380 Descending Boston Center
12:50PM 42.5386 -74.8944 74° East 358 412 14,300 -1,560 Descending Boston Center
12:51PM 42.5531 -74.7936 79° East 340 391 13,100 -1,920 Descending Boston Center
12:51PM 42.5647 -74.7403 73° East 348 400 12,400 -1,500 Descending Boston Center
12:52PM 42.5786 -74.6733 74° East 333 383 11,600 -1,320 Descending Boston Center
12:52PM 42.5878 -74.6200 77° East 342 394 11,100 -600 Descending Boston Center
12:53PM 42.6036 -74.5556 72° East 323 372 11,000 -120 Descending Boston Center
12:53PM 42.6108 -74.5050 79° East 319 367 11,000 -1,020 Level Boston Center
12:54PM 42.6394 -74.4214 65° Northeast 303 349 9,800 -1,740 Descending Boston Center
12:55PM 42.6747 -74.3153 66° East 284 327 7,800 -1,920 Descending Boston Center
12:56PM 42.7094 -74.2231 63° Northeast 272 313 5,800 -1,980 Descending Boston Center
12:57PM 42.7400 -74.1364 64° Northeast 259 298 3,900 -1,440 Descending Boston Center
12:58PM 42.7703 -74.0494 65° Northeast 242 278 2,900 -720 Descending Boston Center
12:59PM 42.7964 -73.9764 64° Northeast 190 219 2,500 -480 Descending Boston Center
01:00PM 42.8244 -73.9150 58° Northeast 188 216 2,000 -540 Descending Boston Center